Time;durP1;ratioP1;P1;durP2;ratioP2;P2;SDS_P1;SDS_P2;PMS_P1;PMS_P2;Temp;Humidity;BMP_temperature;BMP_pressure;BME280_temperature;BME280_humidity;BME280_pressure;Samples;Min_cycle;Max_cycle;Signal;HPM_P1;HPM_P2
2023/06/26 00:00:26;;;;;;;19.55;12.88;;;;;;;19.00;46.68;99639.53;5071226;28;20101;-64
2023/06/26 00:02:51;;;;;;;18.15;11.93;;;;;;;19.18;46.27;99666.31;5089163;28;20035;-66
2023/06/26 00:05:17;;;;;;;22.77;12.20;;;;;;;19.17;46.67;99676.34;5075248;28;20455;-65
2023/06/26 00:07:42;;;;;;;20.20;12.65;;;;;;;19.18;46.06;99669.03;5069584;28;20036;-66
2023/06/26 00:10:08;;;;;;;18.90;13.30;;;;;;;19.18;46.35;99661.75;5071491;28;20108;-65
2023/06/26 00:12:34;;;;;;;21.92;13.55;;;;;;;19.20;47.60;99672.38;5071975;28;20036;-63
2023/06/26 00:15:01;;;;;;;20.55;12.77;;;;;;;19.20;46.71;99672.38;5071512;28;20040;-73
2023/06/26 00:17:26;;;;;;;22.55;12.50;;;;;;;19.04;46.81;99655.22;5072831;28;20363;-63
2023/06/26 00:19:52;;;;;;;23.13;13.13;;;;;;;19.14;47.45;99667.72;5071719;28;20127;-65
2023/06/26 00:22:18;;;;;;;21.65;13.13;;;;;;;19.16;47.82;99674.63;5071939;28;20051;-64
2023/06/26 00:24:44;;;;;;;23.15;13.95;;;;;;;19.00;47.85;99647.66;5079582;28;20119;-64
2023/06/26 00:27:10;;;;;;;17.70;13.45;;;;;;;19.08;48.51;99662.00;5088666;28;20466;-65
2023/06/26 00:29:38;;;;;;;20.17;12.57;;;;;;;19.08;48.71;99667.44;5095142;28;20118;-64
2023/06/26 00:32:04;;;;;;;22.15;13.05;;;;;;;19.05;48.63;99672.38;5095798;28;20028;-62
2023/06/26 00:34:29;;;;;;;23.75;13.00;;;;;;;19.05;48.96;99662.38;5093663;28;20103;-63
2023/06/26 00:36:55;;;;;;;19.35;13.82;;;;;;;19.03;48.48;99650.81;5095095;28;20052;-63
2023/06/26 00:39:20;;;;;;;27.25;13.98;;;;;;;19.14;47.41;99659.56;5095308;28;20053;-64
2023/06/26 00:41:46;;;;;;;21.00;13.07;;;;;;;19.22;47.38;99662.19;5095773;28;20115;-64
2023/06/26 00:44:11;;;;;;;19.42;14.35;;;;;;;19.42;46.91;99669.81;5093112;28;20024;-65
2023/06/26 00:46:37;;;;;;;29.83;15.43;;;;;;;19.46;46.60;99671.13;5094941;28;20074;-64
2023/06/26 00:49:03;;;;;;;31.30;14.60;;;;;;;19.48;46.74;99671.78;5093898;28;20032;-73
2023/06/26 00:51:30;;;;;;;25.83;14.98;;;;;;;19.41;47.19;99668.13;5095119;28;20051;-64
2023/06/26 00:53:57;;;;;;;24.25;14.63;;;;;;;19.24;47.56;99668.28;5094509;28;20032;-63
2023/06/26 00:56:23;;;;;;;23.35;14.63;;;;;;;19.27;47.73;99676.03;5094672;28;20028;-63
2023/06/26 00:58:49;;;;;;;23.52;14.82;;;;;;;19.23;48.01;99663.88;5074918;28;20043;-63
2023/06/26 01:01:17;;;;;;;21.58;14.35;;;;;;;19.22;48.96;99675.75;5093711;28;20024;-64
2023/06/26 01:03:51;;;;;;;24.70;14.95;;;;;;;19.24;48.55;99675.59;5093121;28;20034;-63
2023/06/26 01:06:18;;;;;;;18.75;14.57;;;;;;;19.12;48.94;99665.16;5094387;28;20425;-64
2023/06/26 01:08:45;;;;;;;23.52;14.15;;;;;;;18.97;48.83;99646.09;5094786;28;20067;-64
2023/06/26 01:11:12;;;;;;;21.48;13.98;;;;;;;19.08;49.37;99662.00;5094270;28;20365;-65
2023/06/26 01:13:39;;;;;;;20.17;14.05;;;;;;;19.04;48.87;99657.13;5094365;28;20370;-65
2023/06/26 01:16:05;;;;;;;25.17;15.13;;;;;;;19.00;49.50;99653.91;5087865;28;20024;-67
2023/06/26 01:18:32;;;;;;;24.55;14.95;;;;;;;19.02;49.27;99667.31;5073929;28;20029;-63
2023/06/26 01:21:01;;;;;;;22.45;14.70;;;;;;;18.99;49.69;99659.53;5074067;28;20052;-63
2023/06/26 01:23:48;;;;;;;31.90;14.65;;;;;;;19.06;49.30;99666.75;5075263;28;20102;-64
2023/06/26 01:26:18;;;;;;;19.48;14.40;;;;;;;19.03;49.67;99667.09;5053634;28;20044;-64
2023/06/26 01:28:45;;;;;;;21.80;14.75;;;;;;;18.95;50.39;99659.00;5053924;28;20029;-64
2023/06/26 01:31:12;;;;;;;21.50;14.18;;;;;;;18.92;50.06;99662.09;5053175;28;20337;-62
2023/06/26 01:33:38;;;;;;;26.05;15.85;;;;;;;18.96;49.37;99666.13;5053880;28;20367;-65
2023/06/26 01:36:04;;;;;;;20.50;15.02;;;;;;;18.78;49.42;99629.31;5053802;28;20033;-65
2023/06/26 01:38:30;;;;;;;20.63;14.43;;;;;;;19.00;50.11;99666.66;5053945;28;20037;-63
2023/06/26 01:40:56;;;;;;;19.40;15.43;;;;;;;19.01;49.99;99666.44;5074474;28;20163;-63
2023/06/26 01:43:45;;;;;;;23.65;14.20;;;;;;;19.07;50.62;99665.75;5072296;28;20036;-63
2023/06/26 01:46:23;;;;;;;20.42;14.43;;;;;;;19.06;50.70;99655.91;5053928;28;20033;-64
2023/06/26 01:49:22;;;;;;;26.33;14.98;;;;;;;18.91;50.55;99634.13;5053522;28;20451;-63
2023/06/26 01:52:05;;;;;;;20.10;14.15;;;;;;;19.04;50.76;99655.22;5052977;28;20136;-64
2023/06/26 01:54:37;;;;;;;23.10;14.32;;;;;;;19.03;51.46;99669.00;5052681;28;20080;-64
2023/06/26 01:57:04;;;;;;;22.77;15.55;;;;;;;18.96;50.96;99660.69;5053808;28;20033;-65
2023/06/26 01:59:32;;;;;;;21.48;15.70;;;;;;;18.97;50.97;99666.97;5069330;28;20055;-63
2023/06/26 02:02:01;;;;;;;22.13;16.00;;;;;;;19.01;51.35;99669.16;5085553;28;20093;-63
2023/06/26 02:04:26;;;;;;;26.98;17.50;;;;;;;18.94;51.52;99660.03;5073357;28;20051;-65
2023/06/26 02:06:52;;;;;;;28.55;17.20;;;;;;;18.93;51.33;99663.78;5073473;28;20350;-63
2023/06/26 02:09:17;;;;;;;30.80;17.52;;;;;;;18.94;51.44;99665.47;5073053;28;20502;-63
2023/06/26 02:11:43;;;;;;;34.83;18.60;;;;;;;18.94;51.54;99660.91;5072858;28;20024;-63
2023/06/26 02:14:10;;;;;;;32.95;17.83;;;;;;;18.99;51.41;99659.53;5073368;28;20381;-64
2023/06/26 02:16:35;;;;;;;38.55;21.30;;;;;;;19.01;51.45;99660.19;5074846;28;20033;-64
2023/06/26 02:19:01;;;;;;;36.78;22.52;;;;;;;19.04;50.87;99666.06;5073853;28;20509;-64
2023/06/26 02:21:49;;;;;;;42.38;23.45;;;;;;;19.15;50.88;99672.09;5072257;28;20078;-64
2023/06/26 02:24:14;;;;;;;31.48;20.70;;;;;;;19.14;51.43;99663.09;5073269;28;20362;-64
2023/06/26 02:26:40;;;;;;;42.60;22.98;;;;;;;19.21;50.90;99665.94;5072155;28;20036;-63
2023/06/26 02:29:05;;;;;;;33.97;22.17;;;;;;;19.21;50.86;99658.66;5072994;28;20071;-64
2023/06/26 02:31:31;;;;;;;34.72;22.83;;;;;;;19.32;51.04;99662.78;5071575;28;20028;-65
2023/06/26 02:33:57;;;;;;;35.38;23.48;;;;;;;19.38;50.80;99671.22;5072929;28;20324;-64
2023/06/26 02:36:22;;;;;;;38.63;22.80;;;;;;;19.40;51.60;99669.16;5073073;28;20419;-62
2023/06/26 02:38:48;;;;;;;37.22;23.15;;;;;;;19.47;50.28;99667.38;5072336;28;20340;-64
2023/06/26 02:41:13;;;;;;;39.17;23.67;;;;;;;19.54;49.89;99675.63;5072283;28;20056;-63
2023/06/26 02:43:39;;;;;;;38.88;24.77;;;;;;;19.59;49.36;99671.31;5072929;28;20067;-73
2023/06/26 02:46:04;;;;;;;38.65;23.52;;;;;;;19.60;50.09;99670.28;5072898;28;20355;-64
2023/06/26 02:48:30;;;;;;;41.22;25.33;;;;;;;19.63;49.07;99667.19;5072358;28;20431;-63
2023/06/26 02:50:55;;;;;;;46.33;25.83;;;;;;;19.72;48.91;99673.38;5085798;28;20028;-64
2023/06/26 02:53:21;;;;;;;46.38;28.05;;;;;;;19.78;48.71;99672.63;5092602;28;20039;-65
2023/06/26 02:55:47;;;;;;;42.53;27.48;;;;;;;19.86;48.78;99679.84;5092430;28;20039;-63
2023/06/26 02:58:13;;;;;;;42.38;27.00;;;;;;;19.90;48.92;99680.31;5092492;28;20031;-63
2023/06/26 03:00:41;;;;;;;44.67;27.92;;;;;;;19.97;48.73;99664.09;5091655;28;20419;-63
2023/06/26 03:03:07;;;;;;;50.90;28.73;;;;;;;19.98;48.05;99644.06;5092815;28;20411;-63
2023/06/26 03:05:33;;;;;;;44.00;27.85;;;;;;;20.28;48.26;99671.19;5091983;28;20096;-66
2023/06/26 03:07:58;;;;;;;48.35;28.50;;;;;;;20.40;46.94;99664.19;5087793;28;20115;-66
2023/06/26 03:10:24;;;;;;;50.58;28.58;;;;;;;20.48;47.23;99666.78;5078859;28;20432;-66
2023/06/26 03:12:50;;;;;;;48.63;28.42;;;;;;;20.50;47.07;99629.41;5073091;28;20094;-66
2023/06/26 03:15:15;;;;;;;45.97;28.48;;;;;;;20.79;46.58;99671.13;5072117;28;20426;-64
2023/06/26 03:17:41;;;;;;;47.20;27.73;;;;;;;20.92;47.00;99664.09;5072232;28;20029;-72
2023/06/26 03:20:08;;;;;;;45.28;29.00;;;;;;;20.69;46.10;99632.47;5071137;28;20382;-64
2023/06/26 03:22:33;;;;;;;43.00;28.08;;;;;;;20.87;45.98;99647.53;5070745;28;20029;-63
2023/06/26 03:24:59;;;;;;;46.45;28.80;;;;;;;21.06;45.71;99657.75;5072097;28;20051;-63
2023/06/26 03:27:25;;;;;;;45.90;29.33;;;;;;;21.21;45.28;99656.78;5071921;28;20042;-63
2023/06/26 03:29:52;;;;;;;40.92;28.73;;;;;;;21.32;45.11;99661.72;5071773;28;20347;-65
2023/06/26 03:32:17;;;;;;;48.33;28.92;;;;;;;21.46;44.36;99657.19;5071228;28;20107;-63
2023/06/26 03:34:43;;;;;;;46.08;29.10;;;;;;;21.55;44.50;99644.25;5072442;28;20132;-66
2023/06/26 03:37:08;;;;;;;45.13;28.83;;;;;;;21.84;43.64;99664.16;5072164;28;20028;-64
2023/06/26 03:39:34;;;;;;;45.78;28.27;;;;;;;22.08;43.21;99659.22;5071937;28;20446;-64
2023/06/26 03:42:00;;;;;;;46.03;28.90;;;;;;;22.39;42.64;99660.56;5071935;28;20083;-64
2023/06/26 03:44:26;;;;;;;46.10;27.92;;;;;;;22.76;41.29;99657.53;5071086;28;20040;-65
2023/06/26 03:46:52;;;;;;;40.30;27.20;;;;;;;23.26;39.96;99657.16;5072048;28;20138;-64
2023/06/26 03:49:18;;;;;;;42.05;27.55;;;;;;;23.79;39.32;99655.34;5070570;28;20037;-64
2023/06/26 03:51:44;;;;;;;42.38;27.70;;;;;;;24.13;38.16;99625.16;5072332;28;20043;-68
2023/06/26 03:54:10;;;;;;;43.28;30.40;;;;;;;24.58;36.90;99657.94;5072299;28;20048;-64
2023/06/26 03:56:35;;;;;;;39.05;28.15;;;;;;;24.94;36.66;99652.88;5071844;28;20120;-64
2023/06/26 03:59:01;;;;;;;43.03;26.92;;;;;;;25.63;34.95;99655.63;5071814;28;20043;-66
2023/06/26 04:01:27;;;;;;;42.30;27.85;;;;;;;26.48;33.46;99649.53;5070360;28;20036;-64
2023/06/26 04:03:53;;;;;;;40.50;27.60;;;;;;;27.16;32.00;99617.22;5074479;28;20028;-66
2023/06/26 04:06:19;;;;;;;41.38;26.85;;;;;;;28.07;30.75;99648.88;5074934;28;20095;-65
2023/06/26 04:08:44;;;;;;;38.35;27.08;;;;;;;29.04;29.49;99639.94;5074938;28;20027;-70
2023/06/26 04:11:10;;;;;;;38.00;26.27;;;;;;;30.08;27.78;99625.66;5075820;28;20328;-66
2023/06/26 04:13:35;;;;;;;33.28;26.48;;;;;;;31.02;26.08;99643.97;5057410;28;20113;-65
2023/06/26 04:16:01;;;;;;;30.67;25.33;;;;;;;31.62;25.79;99640.22;5073867;28;20016;-67
2023/06/26 04:18:27;;;;;;;34.92;23.77;;;;;;;32.44;24.10;99650.00;5074813;28;20043;-66
2023/06/26 04:21:11;;;;;;;30.80;23.50;;;;;;;33.62;24.22;99654.69;5078925;28;20135;-66
2023/06/26 04:23:36;;;;;;;28.02;20.23;;;;;;;34.05;21.45;99653.44;5073797;28;20041;-65
2023/06/26 04:26:04;;;;;;;25.92;18.35;;;;;;;34.73;20.46;99651.09;5074646;28;20344;-65
2023/06/26 04:28:31;;;;;;;21.38;18.05;;;;;;;35.39;20.03;99646.06;5077247;28;20025;-65
2023/06/26 04:30:57;;;;;;;28.13;18.23;;;;;;;35.57;19.50;99638.09;5073943;28;20056;-64
2023/06/26 04:33:23;;;;;;;25.08;17.13;;;;;;;35.96;19.24;99634.25;5074559;28;20048;-64
2023/06/26 04:35:48;;;;;;;21.13;16.33;;;;;;;36.35;18.55;99652.72;5056758;28;20031;-66
2023/06/26 04:38:15;;;;;;;19.52;14.40;;;;;;;36.61;18.10;99646.75;5074754;28;20029;-63
2023/06/26 04:40:41;;;;;;;20.48;15.98;;;;;;;36.96;17.64;99642.84;5076354;28;20024;-67
2023/06/26 04:43:07;;;;;;;17.52;13.27;;;;;;;37.26;16.67;99644.28;5074287;28;20032;-65
2023/06/26 04:45:32;;;;;;;16.83;14.10;;;;;;;37.77;16.03;99642.47;5072712;28;20375;-65
2023/06/26 04:47:59;;;;;;;15.80;13.27;;;;;;;38.19;16.26;99642.44;5072532;28;20644;-66
2023/06/26 04:50:25;;;;;;;14.23;12.82;;;;;;;38.96;15.52;99633.38;5072219;28;20039;-64
2023/06/26 04:52:50;;;;;;;14.90;11.57;;;;;;;39.56;14.70;99635.97;5074657;28;20363;-64
2023/06/26 04:55:16;;;;;;;16.08;11.13;;;;;;;39.67;14.41;99644.91;5073355;28;20081;-69
2023/06/26 04:57:41;;;;;;;13.35;10.80;;;;;;;40.24;14.46;99635.66;5074582;28;20020;-64
2023/06/26 05:00:10;;;;;;;11.75;10.57;;;;;;;40.74;13.46;99633.53;5073133;28;20040;-64
2023/06/26 05:02:36;;;;;;;11.25;9.52;;;;;;;40.99;13.19;99633.81;5073210;28;20441;-64
2023/06/26 05:05:02;;;;;;;8.90;8.10;;;;;;;41.40;12.81;99637.16;5074188;28;20023;-64
2023/06/26 05:07:30;;;;;;;8.75;7.85;;;;;;;41.57;12.06;99639.91;5074134;28;20747;-64
2023/06/26 05:09:55;;;;;;;7.80;7.07;;;;;;;41.95;12.11;99632.59;5074030;28;20037;-65
2023/06/26 05:12:21;;;;;;;8.18;7.40;;;;;;;42.32;11.98;99635.66;5073770;28;20048;-68
2023/06/26 05:14:46;;;;;;;8.45;7.65;;;;;;;43.00;11.32;99644.16;5073952;28;20111;-76
2023/06/26 05:17:13;;;;;;;7.97;7.25;;;;;;;43.13;10.72;99645.00;5086127;28;20047;-70
2023/06/26 05:19:39;;;;;;;7.68;7.03;;;;;;;43.31;10.57;99637.22;5094283;28;20047;-67
2023/06/26 05:22:10;;;;;;;7.90;7.13;;;;;;;43.80;10.24;99625.13;5093459;28;20454;-70
2023/06/26 05:24:37;;;;;;;7.45;6.85;;;;;;;44.41;10.32;99637.47;5094530;28;20035;-65
2023/06/26 05:27:03;;;;;;;9.35;7.45;;;;;;;44.90;9.54;99620.66;5091693;28;20031;-65
2023/06/26 05:29:31;;;;;;;10.18;7.45;;;;;;;45.37;9.38;99658.66;5057618;28;20028;-66
2023/06/26 05:31:57;;;;;;;7.85;7.05;;;;;;;45.27;9.46;99649.50;5093247;28;20062;-68
2023/06/26 05:34:23;;;;;;;9.68;7.63;;;;;;;45.38;9.63;99632.84;5094241;28;20028;-66
2023/06/26 05:36:57;;;;;;;8.57;7.70;;;;;;;46.15;8.92;99641.13;5093398;28;20077;-66
2023/06/26 05:39:22;;;;;;;7.72;6.90;;;;;;;46.18;8.73;99639.56;5093534;28;20062;-66
2023/06/26 05:41:48;;;;;;;7.00;6.30;;;;;;;45.50;8.79;99629.09;5094369;28;20358;-69
2023/06/26 05:44:14;;;;;;;6.45;5.85;;;;;;;45.92;8.66;99643.81;5076354;28;20412;-66
2023/06/26 05:46:39;;;;;;;7.05;6.45;;;;;;;45.73;8.18;99626.47;5081756;28;20032;-68
2023/06/26 05:49:05;;;;;;;6.93;5.82;;;;;;;46.01;8.44;99628.28;5072841;28;20036;-67
2023/06/26 05:51:31;;;;;;;6.88;6.18;;;;;;;46.34;8.46;99631.84;5072410;28;20029;-67
2023/06/26 05:53:56;;;;;;;6.38;5.88;;;;;;;46.36;8.30;99637.94;5073769;28;20331;-66
2023/06/26 05:56:22;;;;;;;7.22;5.97;;;;;;;45.76;8.52;99626.91;5073867;28;20402;-74
2023/06/26 05:58:48;;;;;;;7.15;6.18;;;;;;;45.85;8.46;99634.00;5056562;28;20025;-73
2023/06/26 06:01:14;;;;;;;7.38;6.50;;;;;;;45.90;8.82;99626.41;5073445;28;20031;-74
2023/06/26 06:03:40;;;;;;;7.25;6.60;;;;;;;46.13;8.76;99630.19;5072450;28;20143;-73
2023/06/26 06:06:05;;;;;;;7.93;7.13;;;;;;;47.01;8.32;99622.22;5079553;28;20415;-74
2023/06/26 06:08:31;;;;;;;7.63;6.82;;;;;;;47.70;8.02;99617.72;5075275;28;20060;-73
2023/06/26 06:10:59;;;;;;;6.35;5.88;;;;;;;47.43;7.54;99619.72;5072010;28;20039;-72
2023/06/26 06:13:25;;;;;;;6.28;5.72;;;;;;;47.91;7.66;99627.75;5072201;28;20107;-72
2023/06/26 06:15:50;;;;;;;7.70;6.05;;;;;;;48.47;7.41;99624.44;5056109;28;20491;-70
2023/06/26 06:18:16;;;;;;;6.30;5.55;;;;;;;48.60;7.20;99619.31;5073867;28;20028;-72
2023/06/26 06:20:42;;;;;;;6.38;5.80;;;;;;;48.84;7.16;99612.28;5072547;28;20044;-71
2023/06/26 06:23:07;;;;;;;6.68;6.03;;;;;;;49.36;6.37;99623.72;5073996;28;20036;-73
2023/06/26 06:25:33;;;;;;;7.82;5.80;;;;;;;49.98;6.63;99629.84;5091181;28;20084;-71
2023/06/26 06:27:58;;;;;;;7.10;5.20;;;;;;;49.74;6.27;99615.06;5092462;28;20020;-72
2023/06/26 06:30:23;;;;;;;5.40;5.00;;;;;;;50.03;6.10;99612.38;5080981;28;20435;-73
2023/06/26 06:32:52;;;;;;;6.85;6.20;;;;;;;49.65;6.14;99614.59;5073211;28;20040;-74
2023/06/26 06:35:18;;;;;;;6.82;5.40;;;;;;;49.65;6.15;99611.75;5072507;28;20039;-73
2023/06/26 06:37:44;;;;;;;7.68;5.43;;;;;;;49.65;6.23;99625.97;5072005;28;20032;-73
2023/06/26 06:40:10;;;;;;;5.82;5.20;;;;;;;49.35;5.95;99624.94;5084302;28;20024;-73
2023/06/26 06:42:36;;;;;;;5.63;5.22;;;;;;;49.13;6.01;99619.03;5092933;28;20036;-76
2023/06/26 06:45:06;;;;;;;5.28;4.80;;;;;;;48.76;6.40;99611.34;5068576;28;20139;-76
2023/06/26 06:47:32;;;;;;;7.53;4.82;;;;;;;48.73;6.13;99588.63;5071874;28;20036;-76
2023/06/26 06:50:03;;;;;;;5.82;4.85;;;;;;;49.67;5.68;99612.97;5072521;28;20028;-74
2023/06/26 06:52:29;;;;;;;6.45;4.90;;;;;;;49.99;5.36;99605.88;5072550;28;20431;-76
2023/06/26 06:54:58;;;;;;;6.45;4.80;;;;;;;50.01;4.87;99609.13;5083119;28;20032;-75
2023/06/26 06:57:26;;;;;;;6.00;5.10;;;;;;;50.30;4.95;99608.47;5092695;28;20454;-73
2023/06/26 06:59:52;;;;;;;5.57;5.07;;;;;;;50.73;4.96;99607.78;5092308;28;20053;-76
2023/06/26 07:02:17;;;;;;;5.70;5.20;;;;;;;50.60;4.81;99604.50;5092809;28;20020;-75
2023/06/26 07:04:43;;;;;;;5.53;5.13;;;;;;;50.30;4.58;99602.78;5084308;28;20085;-75
2023/06/26 07:07:09;;;;;;;5.00;4.47;;;;;;;50.29;4.65;99590.56;5055581;28;20082;-76
2023/06/26 07:09:36;;;;;;;5.05;4.65;;;;;;;50.22;4.87;99597.03;5054681;28;20356;-75
2023/06/26 07:12:02;;;;;;;5.68;5.05;;;;;;;49.46;5.07;99596.59;5071762;28;20454;-76
2023/06/26 07:14:28;;;;;;;5.68;4.80;;;;;;;48.93;5.60;99598.56;5072283;28;20498;-76
2023/06/26 07:16:53;;;;;;;5.55;5.15;;;;;;;48.41;5.70;99592.75;5071818;28;20207;-72
2023/06/26 07:19:19;;;;;;;4.97;4.68;;;;;;;48.49;5.54;99587.97;5056300;28;20102;-68
2023/06/26 07:21:46;;;;;;;5.95;5.03;;;;;;;49.27;5.91;99584.25;5051983;28;20362;-67
2023/06/26 07:24:11;;;;;;;6.13;4.97;;;;;;;49.17;5.40;99590.66;5059014;28;20024;-66
2023/06/26 07:26:37;;;;;;;6.03;5.47;;;;;;;48.17;6.34;99589.19;5070861;28;20024;-66
2023/06/26 07:29:02;;;;;;;5.78;5.20;;;;;;;47.67;6.62;99584.47;5071348;28;20183;-66
2023/06/26 07:31:28;;;;;;;6.07;5.57;;;;;;;47.21;6.74;99590.19;5069033;28;20035;-65
2023/06/26 07:33:53;;;;;;;5.80;5.05;;;;;;;46.04;7.56;99592.75;5071808;28;20123;-66
2023/06/26 07:36:19;;;;;;;7.13;5.70;;;;;;;45.44;7.57;99579.69;5076659;28;20039;-69
2023/06/26 07:38:45;;;;;;;6.03;5.13;;;;;;;45.85;7.76;99549.16;5085144;28;20040;-67
2023/06/26 07:41:10;;;;;;;5.40;5.00;;;;;;;47.46;6.57;99584.13;5076088;28;20029;-65
2023/06/26 07:43:36;;;;;;;5.07;4.68;;;;;;;48.54;5.75;99570.56;5077568;28;20036;-66
2023/06/26 07:46:01;;;;;;;6.30;5.13;;;;;;;49.90;5.39;99562.72;5075920;28;20435;-65
2023/06/26 07:48:27;;;;;;;5.00;4.63;;;;;;;51.12;4.49;99549.97;5074868;28;20032;-65
2023/06/26 07:50:53;;;;;;;5.93;5.40;;;;;;;50.87;4.86;99582.13;5076244;28;20090;-66
2023/06/26 07:53:19;;;;;;;6.55;5.05;;;;;;;46.96;6.54;99577.22;5071609;28;20066;-62
2023/06/26 07:55:45;;;;;;;7.78;4.95;;;;;;;45.05;7.98;99579.50;5075195;28;20040;-63
2023/06/26 07:58:10;;;;;;;5.40;4.90;;;;;;;43.38;8.66;99563.34;5079714;28;20036;-61
2023/06/26 08:00:36;;;;;;;9.43;5.30;;;;;;;42.71;9.48;99553.03;5073580;28;20518;-65
2023/06/26 08:03:01;;;;;;;6.78;5.20;;;;;;;44.10;8.37;99539.38;5075725;28;20048;-65
2023/06/26 08:05:27;;;;;;;5.55;5.05;;;;;;;45.87;7.63;99560.91;5076229;28;20016;-63
2023/06/26 08:07:52;;;;;;;13.90;6.30;;;;;;;47.57;6.68;99543.38;5075022;28;20032;-62
2023/06/26 08:10:18;;;;;;;5.75;5.25;;;;;;;48.67;6.07;99556.91;5074508;28;20024;-64
2023/06/26 08:12:45;;;;;;;6.45;5.57;;;;;;;47.40;6.63;99541.09;5075114;28;20074;-64
2023/06/26 08:15:11;;;;;;;6.05;5.10;;;;;;;44.70;7.85;99556.41;5074077;28;20055;-68
2023/06/26 08:17:37;;;;;;;5.85;5.30;;;;;;;43.46;8.81;99559.59;5073383;28;20034;-64
2023/06/26 08:20:04;;;;;;;6.95;5.57;;;;;;;41.59;9.81;99558.91;5086481;28;20047;-64
2023/06/26 08:22:31;;;;;;;7.20;5.78;;;;;;;38.77;11.26;99572.00;5078655;28;20466;-64
2023/06/26 08:24:56;;;;;;;6.03;5.53;;;;;;;37.53;12.22;99570.06;5074976;28;20107;-65
2023/06/26 08:27:22;;;;;;;5.68;5.18;;;;;;;36.99;12.77;99573.31;5074472;28;20048;-62
2023/06/26 08:29:48;;;;;;;10.40;5.35;;;;;;;36.27;13.29;99568.94;5074965;28;20055;-65
2023/06/26 08:32:13;;;;;;;7.45;5.38;;;;;;;35.39;13.76;99556.16;5075439;28;20036;-60
2023/06/26 08:34:39;;;;;;;6.20;5.60;;;;;;;34.58;14.84;99560.31;5074223;28;20035;-61
2023/06/26 08:37:05;;;;;;;5.90;5.40;;;;;;;33.79;15.05;99590.47;5074621;28;20377;-60
2023/06/26 08:39:30;;;;;;;5.82;5.22;;;;;;;33.03;15.67;99568.22;5073249;28;20044;-61
2023/06/26 08:41:56;;;;;;;7.30;5.93;;;;;;;32.57;16.73;99574.63;5076276;28;20056;-65
2023/06/26 08:44:24;;;;;;;7.22;6.30;;;;;;;32.19;17.13;99552.69;5080639;28;20093;-62
2023/06/26 08:46:51;;;;;;;5.75;5.20;;;;;;;31.90;17.21;99552.34;5075117;28;20028;-63
2023/06/26 08:49:49;;;;;;;7.45;5.63;;;;;;;32.04;17.63;99567.34;5076857;28;20036;-61
2023/06/26 08:52:23;;;;;;;7.32;6.30;;;;;;;31.89;17.20;99567.28;5064930;28;20135;-59
2023/06/26 08:54:56;;;;;;;8.05;5.93;;;;;;;31.38;17.72;99554.09;5074245;28;20021;-60
2023/06/26 08:57:23;;;;;;;6.15;5.65;;;;;;;31.06;18.21;99564.09;5080218;28;20118;-61
2023/06/26 08:59:49;;;;;;;10.10;6.55;;;;;;;30.75;18.78;99550.91;5078620;28;20506;-62
2023/06/26 09:02:15;;;;;;;10.52;6.35;;;;;;;30.44;19.93;99545.13;5072866;28;20036;-62
2023/06/26 09:04:41;;;;;;;8.02;6.13;;;;;;;30.44;19.91;99553.41;5073888;28;20033;-63
2023/06/26 09:07:07;;;;;;;6.95;5.88;;;;;;;30.73;19.97;99539.28;5072527;28;20031;-61
2023/06/26 09:09:33;;;;;;;9.23;6.45;;;;;;;30.63;19.30;99526.22;5073884;28;20052;-60
2023/06/26 09:11:58;;;;;;;8.60;6.32;;;;;;;30.58;19.40;99528.06;5078271;28;20074;-66
2023/06/26 09:14:24;;;;;;;7.93;6.57;;;;;;;30.34;19.52;99545.00;5082744;28;20462;-61
2023/06/26 09:16:50;;;;;;;7.65;6.50;;;;;;;30.03;20.11;99533.69;5073668;28;20052;-60
2023/06/26 09:19:16;;;;;;;7.72;6.90;;;;;;;29.69;20.39;99534.66;5075288;28;20040;-59
2023/06/26 09:21:43;;;;;;;7.65;6.63;;;;;;;29.35;20.76;99545.81;5072981;28;20370;-62
2023/06/26 09:24:09;;;;;;;7.57;6.78;;;;;;;28.81;21.19;99521.63;5073212;28;20028;-61
2023/06/26 09:26:39;;;;;;;10.40;6.78;;;;;;;28.69;21.48;99547.31;5073777;28;20036;-59
2023/06/26 09:29:05;;;;;;;9.02;6.70;;;;;;;28.83;21.56;99547.00;5073601;28;20102;-63
2023/06/26 09:31:32;;;;;;;9.32;6.45;;;;;;;28.75;21.18;99535.28;5073358;28;20346;-58
2023/06/26 09:33:59;;;;;;;9.93;6.50;;;;;;;28.92;21.11;99535.31;5073427;28;20112;-61
2023/06/26 09:36:27;;;;;;;9.15;6.90;;;;;;;29.01;21.28;99541.22;5073971;28;20044;-60
2023/06/26 09:38:53;;;;;;;7.28;6.10;;;;;;;28.95;20.90;99536.72;5073803;28;20029;-59
2023/06/26 09:41:19;;;;;;;8.68;6.80;;;;;;;28.87;21.11;99526.97;5073437;28;20081;-62
2023/06/26 09:43:46;;;;;;;12.15;6.75;;;;;;;29.14;21.03;99534.50;5073457;28;20028;-61
2023/06/26 09:46:16;;;;;;;7.30;6.18;;;;;;;29.18;20.95;99515.56;5073226;28;20374;-63
2023/06/26 09:48:42;;;;;;;7.00;6.40;;;;;;;29.25;20.50;99531.88;5073009;28;20090;-63
2023/06/26 09:51:07;;;;;;;8.57;7.03;;;;;;;29.13;20.33;99526.47;5071679;28;20024;-66
2023/06/26 09:53:36;;;;;;;6.97;6.28;;;;;;;29.02;20.63;99540.13;5073460;28;20063;-60
2023/06/26 09:56:16;;;;;;;8.05;6.30;;;;;;;28.86;20.99;99528.06;5072871;28;20042;-62
2023/06/26 09:58:43;;;;;;;12.75;6.95;;;;;;;28.61;22.03;99534.81;5071731;28;20024;-62
2023/06/26 10:01:09;;;;;;;8.02;6.55;;;;;;;28.64;22.08;99530.69;5071302;28;20028;-58
2023/06/26 10:03:35;;;;;;;11.18;6.40;;;;;;;28.77;21.66;99529.53;5072303;28;20081;-67
2023/06/26 10:06:02;;;;;;;9.45;7.28;;;;;;;28.87;21.73;99528.88;5072275;28;20082;-64
2023/06/26 10:08:30;;;;;;;9.15;6.90;;;;;;;28.96;21.40;99527.38;5072691;28;20032;-60
2023/06/26 10:10:56;;;;;;;10.32;6.32;;;;;;;29.01;21.39;99535.72;5071535;28;20100;-61
2023/06/26 10:13:27;;;;;;;6.53;5.93;;;;;;;29.19;21.20;99531.81;5073051;28;20028;-61
2023/06/26 10:15:53;;;;;;;7.00;6.00;;;;;;;29.25;20.89;99534.63;5072702;28;20111;-62
2023/06/26 10:18:24;;;;;;;7.43;6.60;;;;;;;29.18;20.94;99537.59;5072427;28;20127;-52
2023/06/26 10:20:53;;;;;;;7.05;6.35;;;;;;;28.89;21.96;99540.47;5072693;28;20127;-58
2023/06/26 10:23:20;;;;;;;7.40;6.40;;;;;;;28.63;22.88;99529.88;5075707;28;20044;-57
2023/06/26 10:25:48;;;;;;;6.70;5.90;;;;;;;28.38;22.14;99533.03;5085455;28;20020;-60
2023/06/26 10:28:16;;;;;;;6.18;5.47;;;;;;;28.18;21.53;99536.28;5072447;28;20056;-57
2023/06/26 10:30:44;;;;;;;7.28;5.32;;;;;;;28.17;21.63;99527.16;5069749;28;20020;-58
2023/06/26 10:33:11;;;;;;;8.88;5.75;;;;;;;28.19;21.76;99533.25;5071817;28;20355;-55
2023/06/26 10:35:44;;;;;;;6.85;5.70;;;;;;;28.47;21.18;99537.06;5073170;28;20336;-59
2023/06/26 10:38:10;;;;;;;6.28;5.50;;;;;;;28.58;21.33;99526.19;5072059;28;20036;-58
2023/06/26 10:40:46;;;;;;;6.78;5.60;;;;;;;28.83;21.18;99524.97;5072312;28;20032;-59
2023/06/26 10:43:13;;;;;;;6.30;5.70;;;;;;;28.75;21.37;99512.41;5071989;28;20355;-59
2023/06/26 10:45:51;;;;;;;6.35;5.72;;;;;;;28.96;21.08;99527.38;5071571;28;20028;-57
2023/06/26 10:48:17;;;;;;;6.40;5.80;;;;;;;28.98;21.34;99516.94;5071578;28;20025;-56
2023/06/26 10:50:46;;;;;;;6.88;5.80;;;;;;;29.02;21.11;99507.06;5072383;28;20035;-59
2023/06/26 10:53:22;;;;;;;7.43;5.70;;;;;;;29.04;21.39;99510.41;5072430;28;20054;-57
2023/06/26 10:55:51;;;;;;;6.95;5.70;;;;;;;29.05;21.43;99513.97;5069512;28;20112;-56
2023/06/26 10:58:40;;;;;;;6.65;6.03;;;;;;;29.16;21.72;99506.66;5071938;28;20034;-57
2023/06/26 11:01:14;;;;;;;6.68;5.97;;;;;;;29.02;21.59;99504.31;5069433;28;20064;-62
2023/06/26 11:03:45;;;;;;;6.68;5.88;;;;;;;28.84;21.96;99501.84;5092261;28;20458;-63
2023/06/26 11:06:11;;;;;;;9.15;6.05;;;;;;;28.75;22.30;99490.38;5092043;28;20089;-65
2023/06/26 11:08:55;;;;;;;7.03;5.78;;;;;;;28.79;22.65;99500.69;5091604;28;20050;-63
2023/06/26 11:11:22;;;;;;;8.38;6.63;;;;;;;28.54;22.79;99489.25;5092042;28;20066;-63
2023/06/26 11:13:48;;;;;;;8.70;6.60;;;;;;;28.38;23.07;99491.75;5080430;28;20028;-62
2023/06/26 11:16:14;;;;;;;7.55;6.47;;;;;;;28.21;23.28;99489.00;5092635;28;20350;-66
2023/06/26 11:18:41;;;;;;;7.45;6.15;;;;;;;28.15;23.30;99492.72;5092184;28;20039;-63
2023/06/26 11:21:08;;;;;;;7.45;6.60;;;;;;;28.13;23.28;99483.88;5091828;28;20062;-62
2023/06/26 11:23:36;;;;;;;10.35;6.68;;;;;;;28.10;23.50;99487.13;5091747;28;20043;-70
2023/06/26 11:26:23;;;;;;;10.13;6.40;;;;;;;28.23;23.24;99481.31;5084820;28;20074;-61